BOXER20 KCLT-KBHM
Flight info
| Callsign | BOXER20 |
|---|---|
| Flight time | 1h 14m |
| Altitude | 28000 |
| Route | ESTRR5 IPTAY CHOPZ THRSR KIOSK |
| Aircraft | B737/M-VGDW/C |
Departure
| Time | 2026-04-19 23:45 |
|---|---|
| Airport | Charlotte Douglas International Airport (KCLT) |
Arrival
| Time | 2026-04-20 01:00 |
|---|---|
| Airport | Birmingham-Shuttlesworth International Airport (KBHM) |
| Time | Latitude | Longitude | Altitude | Speed | Heading |
|---|---|---|---|---|---|
| 2026-04-19 23:07 | 35.21767 | -80.93286 | 758 ft | 0 kts | 266° |
| 2026-04-19 23:32 | 35.21767 | -80.93270 | 758 ft | 6 kts | 267° |
| 2026-04-19 23:32 | 35.21768 | -80.93282 | 758 ft | 5 kts | 269° |
| 2026-04-19 23:33 | 35.21733 | -80.93328 | 758 ft | 10 kts | 179° |
| 2026-04-19 23:33 | 35.21644 | -80.93323 | 758 ft | 14 kts | 177° |
| 2026-04-19 23:33 | 35.21557 | -80.93317 | 758 ft | 4 kts | 179° |
| 2026-04-19 23:33 | 35.21552 | -80.93318 | 758 ft | 0 kts | 214° |
| 2026-04-19 23:34 | 35.21526 | -80.93356 | 758 ft | 7 kts | 254° |
| 2026-04-19 23:34 | 35.21479 | -80.93392 | 758 ft | 11 kts | 182° |
| 2026-04-19 23:34 | 35.21437 | -80.93390 | 758 ft | 13 kts | 175° |
| 2026-04-19 23:35 | 35.21350 | -80.93381 | 758 ft | 11 kts | 175° |
| 2026-04-19 23:35 | 35.21273 | -80.93374 | 758 ft | 11 kts | 175° |
| 2026-04-19 23:35 | 35.21189 | -80.93366 | 758 ft | 13 kts | 176° |
| 2026-04-19 23:35 | 35.21076 | -80.93358 | 758 ft | 17 kts | 176° |
| 2026-04-19 23:36 | 35.20937 | -80.93346 | 758 ft | 21 kts | 175° |
| 2026-04-19 23:36 | 35.20770 | -80.93331 | 758 ft | 24 kts | 175° |
| 2026-04-19 23:36 | 35.20617 | -80.93301 | 758 ft | 18 kts | 168° |
| 2026-04-19 23:36 | 35.20501 | -80.93270 | 758 ft | 15 kts | 166° |
| 2026-04-19 23:37 | 35.20384 | -80.93237 | 758 ft | 17 kts | 168° |
| 2026-04-19 23:37 | 35.20279 | -80.93224 | 758 ft | 14 kts | 177° |
| 2026-04-19 23:37 | 35.20180 | -80.93218 | 758 ft | 11 kts | 176° |
| 2026-04-19 23:37 | 35.20126 | -80.93247 | 758 ft | 5 kts | 232° |
| 2026-04-19 23:38 | 35.20119 | -80.93271 | 758 ft | 0 kts | 262° |
| 2026-04-19 23:38 | 35.20119 | -80.93272 | 758 ft | 0 kts | 263° |
| 2026-04-19 23:44 | 35.20118 | -80.93301 | 758 ft | 6 kts | 268° |
| 2026-04-19 23:44 | 35.20117 | -80.93382 | 758 ft | 11 kts | 280° |
| 2026-04-19 23:44 | 35.20196 | -80.93417 | 758 ft | 25 kts | 357° |
| 2026-04-19 23:45 | 35.20638 | -80.93454 | 758 ft | 97 kts | 356° |
| 2026-04-19 23:45 | 35.21515 | -80.93526 | 806 ft | 148 kts | 356° |
| 2026-04-19 23:45 | 35.22530 | -80.93594 | 1537 ft | 143 kts | 356° |
| 2026-04-19 23:45 | 35.23508 | -80.93408 | 2255 ft | 148 kts | 12° |
| 2026-04-19 23:46 | 35.24566 | -80.93015 | 2683 ft | 168 kts | 13° |
| 2026-04-19 23:46 | 35.25778 | -80.92830 | 3136 ft | 181 kts | 352° |
| 2026-04-19 23:46 | 35.27131 | -80.92987 | 3378 ft | 209 kts | 352° |
| 2026-04-19 23:46 | 35.28673 | -80.93197 | 3909 ft | 229 kts | 351° |
| 2026-04-19 23:47 | 35.30322 | -80.93375 | 4552 ft | 246 kts | 353° |
| 2026-04-19 23:47 | 35.32095 | -80.93565 | 5292 ft | 257 kts | 352° |
| 2026-04-19 23:47 | 35.33904 | -80.93758 | 6163 ft | 263 kts | 352° |
| 2026-04-19 23:47 | 35.35762 | -80.93937 | 7054 ft | 269 kts | 352° |
| 2026-04-19 23:48 | 35.37660 | -80.94102 | 7931 ft | 274 kts | 352° |
| 2026-04-19 23:48 | 35.39627 | -80.94256 | 8802 ft | 281 kts | 352° |
| 2026-04-19 23:48 | 35.41611 | -80.94398 | 9653 ft | 287 kts | 352° |
| 2026-04-19 23:48 | 35.43577 | -80.94872 | 10385 ft | 289 kts | 332° |
| 2026-04-19 23:49 | 35.45264 | -80.96313 | 10668 ft | 305 kts | 308° |
| 2026-04-19 23:49 | 35.46318 | -80.98644 | 11254 ft | 312 kts | 282° |
| 2026-04-19 23:49 | 35.46520 | -81.01311 | 12110 ft | 314 kts | 266° |
| 2026-04-19 23:49 | 35.46352 | -81.04037 | 13043 ft | 318 kts | 262° |
| 2026-04-19 23:50 | 35.46133 | -81.06769 | 13972 ft | 321 kts | 262° |
| 2026-04-19 23:50 | 35.45916 | -81.09519 | 14909 ft | 325 kts | 262° |
| 2026-04-19 23:50 | 35.45705 | -81.12321 | 15837 ft | 329 kts | 262° |
| 2026-04-19 23:50 | 35.45500 | -81.15167 | 16772 ft | 331 kts | 262° |
| 2026-04-19 23:51 | 35.45300 | -81.18019 | 17654 ft | 335 kts | 262° |
| 2026-04-19 23:51 | 35.45100 | -81.20921 | 18522 ft | 338 kts | 262° |
| 2026-04-19 23:51 | 35.44905 | -81.23829 | 19362 ft | 341 kts | 262° |
| 2026-04-19 23:51 | 35.44708 | -81.26762 | 20193 ft | 343 kts | 262° |
| 2026-04-19 23:52 | 35.44513 | -81.29718 | 20990 ft | 346 kts | 262° |
| 2026-04-19 23:52 | 35.44318 | -81.32735 | 21754 ft | 349 kts | 262° |
| 2026-04-19 23:52 | 35.44113 | -81.35748 | 22523 ft | 351 kts | 260° |
| 2026-04-19 23:52 | 35.43384 | -81.38618 | 23175 ft | 351 kts | 241° |
| 2026-04-19 23:53 | 35.41835 | -81.40966 | 23871 ft | 356 kts | 223° |
| 2026-04-19 23:53 | 35.39754 | -81.42735 | 24606 ft | 360 kts | 215° |
| 2026-04-19 23:53 | 35.37568 | -81.44305 | 25186 ft | 365 kts | 214° |
| 2026-04-19 23:53 | 35.35345 | -81.45939 | 25780 ft | 369 kts | 216° |
| 2026-04-19 23:54 | 35.33113 | -81.47657 | 26443 ft | 370 kts | 217° |
| 2026-04-19 23:54 | 35.30935 | -81.49390 | 27069 ft | 372 kts | 217° |
| 2026-04-19 23:54 | 35.28736 | -81.51177 | 27615 ft | 376 kts | 218° |
| 2026-04-19 23:54 | 35.26516 | -81.53003 | 28118 ft | 375 kts | 218° |
| 2026-04-19 23:55 | 35.22090 | -81.56680 | 28151 ft | 384 kts | 218° |
| 2026-04-19 23:55 | 35.17561 | -81.60458 | 28156 ft | 389 kts | 218° |
| 2026-04-19 23:56 | 35.13002 | -81.64263 | 28158 ft | 389 kts | 218° |
| 2026-04-19 23:56 | 35.08479 | -81.68033 | 28157 ft | 388 kts | 218° |
| 2026-04-19 23:57 | 35.03945 | -81.71807 | 28156 ft | 389 kts | 218° |
| 2026-04-19 23:57 | 34.99403 | -81.75588 | 28155 ft | 391 kts | 218° |
| 2026-04-19 23:58 | 34.94918 | -81.79540 | 28154 ft | 390 kts | 223° |
| 2026-04-19 23:58 | 34.91161 | -81.84383 | 28156 ft | 387 kts | 235° |
| 2026-04-19 23:59 | 34.88044 | -81.89818 | 28155 ft | 387 kts | 238° |
| 2026-04-19 23:59 | 34.84978 | -81.95328 | 28155 ft | 387 kts | 238° |
| 2026-04-20 00:00 | 34.81910 | -82.00832 | 28157 ft | 387 kts | 238° |
| 2026-04-20 00:00 | 34.78861 | -82.06290 | 28159 ft | 388 kts | 238° |
| 2026-04-20 00:01 | 34.75774 | -82.11805 | 28162 ft | 387 kts | 238° |
| 2026-04-20 00:02 | 34.71144 | -82.20058 | 28164 ft | 387 kts | 238° |
| 2026-04-20 00:02 | 34.68059 | -82.25547 | 28165 ft | 387 kts | 238° |
| 2026-04-20 00:03 | 34.64962 | -82.31049 | 28165 ft | 388 kts | 238° |
| 2026-04-20 00:03 | 34.61871 | -82.36530 | 28162 ft | 387 kts | 238° |
| 2026-04-20 00:04 | 34.58756 | -82.42046 | 28160 ft | 388 kts | 238° |
| 2026-04-20 00:04 | 34.55653 | -82.47531 | 28159 ft | 388 kts | 238° |
| 2026-04-20 00:05 | 34.52550 | -82.53007 | 28157 ft | 388 kts | 238° |
| 2026-04-20 00:05 | 34.49442 | -82.58485 | 28155 ft | 388 kts | 238° |
| 2026-04-20 00:06 | 34.46344 | -82.63937 | 28155 ft | 388 kts | 238° |
| 2026-04-20 00:06 | 34.43236 | -82.69390 | 28155 ft | 388 kts | 237° |
| 2026-04-20 00:07 | 34.40132 | -82.74825 | 28164 ft | 386 kts | 237° |
| 2026-04-20 00:07 | 34.37019 | -82.80273 | 28167 ft | 387 kts | 237° |
| 2026-04-20 00:08 | 34.33901 | -82.85722 | 28171 ft | 388 kts | 237° |
| 2026-04-20 00:08 | 34.30758 | -82.91198 | 28176 ft | 389 kts | 238° |
| 2026-04-20 00:09 | 34.27620 | -82.96656 | 28179 ft | 390 kts | 238° |
| 2026-04-20 00:09 | 34.24474 | -83.02122 | 28182 ft | 392 kts | 239° |
| 2026-04-20 00:10 | 34.21312 | -83.07607 | 28183 ft | 392 kts | 239° |
| 2026-04-20 00:10 | 34.18136 | -83.13107 | 28185 ft | 393 kts | 239° |
| 2026-04-20 00:11 | 34.14974 | -83.18574 | 28188 ft | 392 kts | 239° |
| 2026-04-20 00:11 | 34.11815 | -83.24029 | 28190 ft | 392 kts | 239° |
| 2026-04-20 00:12 | 34.08637 | -83.29507 | 28192 ft | 392 kts | 239° |
| 2026-04-20 00:12 | 34.05465 | -83.34968 | 28200 ft | 392 kts | 239° |
| 2026-04-20 00:13 | 34.02305 | -83.40400 | 28209 ft | 393 kts | 239° |
| 2026-04-20 00:13 | 33.99120 | -83.45866 | 28217 ft | 392 kts | 239° |
| 2026-04-20 00:14 | 33.95921 | -83.51349 | 28225 ft | 393 kts | 239° |
| 2026-04-20 00:14 | 33.92744 | -83.56785 | 28229 ft | 393 kts | 239° |
| 2026-04-20 00:15 | 33.89563 | -83.62219 | 28228 ft | 392 kts | 239° |
| 2026-04-20 00:15 | 33.86547 | -83.67746 | 28228 ft | 390 kts | 244° |
| 2026-04-20 00:16 | 33.84296 | -83.73721 | 28229 ft | 388 kts | 251° |
| 2026-04-20 00:16 | 33.82389 | -83.79833 | 28227 ft | 387 kts | 252° |
| 2026-04-20 00:17 | 33.80520 | -83.85957 | 28225 ft | 387 kts | 252° |
| 2026-04-20 00:17 | 33.78656 | -83.92089 | 28223 ft | 387 kts | 252° |
| 2026-04-20 00:18 | 33.76783 | -83.98247 | 28220 ft | 388 kts | 252° |
| 2026-04-20 00:18 | 33.74913 | -84.04393 | 28219 ft | 387 kts | 252° |
| 2026-04-20 00:19 | 33.73038 | -84.10542 | 28220 ft | 387 kts | 252° |
| 2026-04-20 00:19 | 33.71170 | -84.16663 | 28221 ft | 387 kts | 252° |
| 2026-04-20 00:20 | 33.69298 | -84.22782 | 28222 ft | 387 kts | 252° |
| 2026-04-20 00:20 | 33.67414 | -84.28928 | 28224 ft | 387 kts | 252° |
| 2026-04-20 00:21 | 33.65641 | -84.34700 | 28226 ft | 387 kts | 252° |
| 2026-04-20 00:21 | 33.63814 | -84.41061 | 28227 ft | 387 kts | 256° |
| 2026-04-20 00:22 | 33.62922 | -84.47448 | 28230 ft | 385 kts | 266° |
| 2026-04-20 00:22 | 33.62706 | -84.53953 | 28228 ft | 385 kts | 269° |
| 2026-04-20 00:23 | 33.62564 | -84.60458 | 28228 ft | 385 kts | 269° |
| 2026-04-20 00:23 | 33.62420 | -84.66973 | 28228 ft | 385 kts | 268° |
| 2026-04-20 00:24 | 33.62267 | -84.73429 | 28229 ft | 385 kts | 268° |
| 2026-04-20 00:24 | 33.62112 | -84.79929 | 28239 ft | 385 kts | 268° |
| 2026-04-20 00:25 | 33.61956 | -84.86404 | 28250 ft | 384 kts | 268° |
| 2026-04-20 00:25 | 33.61797 | -84.92882 | 28261 ft | 385 kts | 268° |
| 2026-04-20 00:26 | 33.61634 | -84.99424 | 28270 ft | 386 kts | 268° |
| 2026-04-20 00:26 | 33.61468 | -85.05951 | 28271 ft | 387 kts | 269° |
| 2026-04-20 00:27 | 33.61297 | -85.12502 | 28272 ft | 388 kts | 270° |
| 2026-04-20 00:27 | 33.61122 | -85.19067 | 28190 ft | 384 kts | 270° |
| 2026-04-20 00:27 | 33.61034 | -85.22231 | 27689 ft | 368 kts | 271° |
| 2026-04-20 00:28 | 33.60948 | -85.25253 | 27173 ft | 355 kts | 271° |
| 2026-04-20 00:28 | 33.60867 | -85.28277 | 26677 ft | 362 kts | 271° |
| 2026-04-20 00:28 | 33.60780 | -85.31358 | 26143 ft | 361 kts | 270° |
| 2026-04-20 00:28 | 33.60695 | -85.34367 | 25619 ft | 348 kts | 271° |
| 2026-04-20 00:29 | 33.60613 | -85.37310 | 25141 ft | 357 kts | 270° |
| 2026-04-20 00:29 | 33.60530 | -85.40329 | 24606 ft | 348 kts | 271° |
| 2026-04-20 00:29 | 33.60447 | -85.43211 | 24122 ft | 346 kts | 270° |
| 2026-04-20 00:29 | 33.60364 | -85.46175 | 23619 ft | 350 kts | 270° |
| 2026-04-20 00:30 | 33.60281 | -85.49070 | 23097 ft | 336 kts | 270° |
| 2026-04-20 00:30 | 33.60197 | -85.51931 | 22624 ft | 344 kts | 270° |
| 2026-04-20 00:30 | 33.60112 | -85.54841 | 22102 ft | 338 kts | 270° |
| 2026-04-20 00:30 | 33.60028 | -85.57619 | 21617 ft | 333 kts | 270° |
| 2026-04-20 00:31 | 33.59943 | -85.60494 | 21129 ft | 339 kts | 270° |
| 2026-04-20 00:31 | 33.59857 | -85.63306 | 20611 ft | 325 kts | 270° |
| 2026-04-20 00:31 | 33.59773 | -85.66040 | 20154 ft | 332 kts | 270° |
| 2026-04-20 00:31 | 33.59686 | -85.68835 | 19643 ft | 329 kts | 270° |
| 2026-04-20 00:32 | 33.59599 | -85.71556 | 19161 ft | 322 kts | 270° |
| 2026-04-20 00:32 | 33.59512 | -85.74332 | 18685 ft | 329 kts | 269° |
| 2026-04-20 00:32 | 33.59425 | -85.77039 | 18180 ft | 316 kts | 269° |
| 2026-04-20 00:32 | 33.59340 | -85.79734 | 17550 ft | 325 kts | 269° |
| 2026-04-20 00:33 | 33.59254 | -85.82424 | 16951 ft | 314 kts | 269° |
| 2026-04-20 00:33 | 33.59169 | -85.85063 | 16486 ft | 316 kts | 269° |
| 2026-04-20 00:33 | 33.59082 | -85.87777 | 15996 ft | 313 kts | 269° |
| 2026-04-20 00:33 | 33.58997 | -85.90369 | 15524 ft | 309 kts | 269° |
| 2026-04-20 00:34 | 33.58911 | -85.93038 | 15056 ft | 312 kts | 269° |
| 2026-04-20 00:34 | 33.58826 | -85.95611 | 14572 ft | 303 kts | 269° |
| 2026-04-20 00:34 | 33.58788 | -85.98193 | 14170 ft | 309 kts | 275° |
| 2026-04-20 00:34 | 33.59152 | -86.00758 | 13912 ft | 308 kts | 283° |
| 2026-04-20 00:35 | 33.59700 | -86.03299 | 13660 ft | 308 kts | 285° |
| 2026-04-20 00:35 | 33.60244 | -86.05833 | 13403 ft | 307 kts | 284° |
| 2026-04-20 00:35 | 33.60747 | -86.08337 | 13151 ft | 306 kts | 283° |
| 2026-04-20 00:35 | 33.61230 | -86.10864 | 12896 ft | 305 kts | 283° |
| 2026-04-20 00:36 | 33.61699 | -86.13374 | 12642 ft | 304 kts | 283° |
| 2026-04-20 00:36 | 33.62163 | -86.15883 | 12388 ft | 303 kts | 282° |
| 2026-04-20 00:36 | 33.62627 | -86.18409 | 12131 ft | 302 kts | 282° |
| 2026-04-20 00:36 | 33.63080 | -86.20882 | 11880 ft | 302 kts | 283° |
| 2026-04-20 00:37 | 33.63533 | -86.23365 | 11627 ft | 301 kts | 283° |
| 2026-04-20 00:37 | 33.63989 | -86.25864 | 11370 ft | 301 kts | 283° |
| 2026-04-20 00:37 | 33.64443 | -86.28359 | 11115 ft | 300 kts | 283° |
| 2026-04-20 00:37 | 33.64899 | -86.30866 | 10858 ft | 300 kts | 283° |
| 2026-04-20 00:38 | 33.65348 | -86.33334 | 10605 ft | 300 kts | 283° |
| 2026-04-20 00:38 | 33.65796 | -86.35805 | 10352 ft | 300 kts | 283° |
| 2026-04-20 00:38 | 33.66250 | -86.38306 | 10095 ft | 299 kts | 283° |
| 2026-04-20 00:38 | 33.66695 | -86.40769 | 9838 ft | 295 kts | 284° |
| 2026-04-20 00:39 | 33.67125 | -86.43153 | 9561 ft | 275 kts | 284° |
| 2026-04-20 00:39 | 33.67519 | -86.45339 | 9305 ft | 258 kts | 284° |
| 2026-04-20 00:39 | 33.67902 | -86.47467 | 9051 ft | 252 kts | 284° |
| 2026-04-20 00:39 | 33.68276 | -86.49535 | 8803 ft | 252 kts | 284° |
| 2026-04-20 00:40 | 33.68655 | -86.51633 | 8548 ft | 251 kts | 284° |
| 2026-04-20 00:40 | 33.69031 | -86.53719 | 8296 ft | 251 kts | 284° |
| 2026-04-20 00:40 | 33.69403 | -86.55793 | 8049 ft | 251 kts | 284° |
| 2026-04-20 00:40 | 33.69774 | -86.57861 | 7992 ft | 249 kts | 284° |
| 2026-04-20 00:41 | 33.70149 | -86.59948 | 7999 ft | 250 kts | 284° |
| 2026-04-20 00:41 | 33.70520 | -86.62017 | 7961 ft | 251 kts | 284° |
| 2026-04-20 00:41 | 33.70898 | -86.64131 | 7831 ft | 250 kts | 284° |
| 2026-04-20 00:41 | 33.71267 | -86.66198 | 7617 ft | 251 kts | 284° |
| 2026-04-20 00:42 | 33.71639 | -86.68283 | 7357 ft | 250 kts | 284° |
| 2026-04-20 00:42 | 33.72008 | -86.70359 | 7101 ft | 249 kts | 284° |
| 2026-04-20 00:42 | 33.72376 | -86.72427 | 6848 ft | 249 kts | 284° |
| 2026-04-20 00:42 | 33.72745 | -86.74496 | 6594 ft | 249 kts | 284° |
| 2026-04-20 00:43 | 33.73113 | -86.76569 | 6339 ft | 249 kts | 284° |
| 2026-04-20 00:43 | 33.73481 | -86.78636 | 6085 ft | 249 kts | 284° |
| 2026-04-20 00:43 | 33.73852 | -86.80729 | 5827 ft | 249 kts | 284° |
| 2026-04-20 00:43 | 33.74218 | -86.82790 | 5573 ft | 248 kts | 284° |
| 2026-04-20 00:44 | 33.74583 | -86.84853 | 5319 ft | 248 kts | 284° |
| 2026-04-20 00:44 | 33.74950 | -86.86929 | 5067 ft | 248 kts | 284° |
| 2026-04-20 00:44 | 33.75310 | -86.88965 | 4995 ft | 246 kts | 284° |
| 2026-04-20 00:44 | 33.75676 | -86.91032 | 5004 ft | 248 kts | 284° |
| 2026-04-20 00:45 | 33.76043 | -86.93111 | 4999 ft | 248 kts | 284° |
| 2026-04-20 00:45 | 33.76401 | -86.95145 | 4999 ft | 248 kts | 284° |
| 2026-04-20 00:45 | 33.76765 | -86.97217 | 4999 ft | 248 kts | 284° |
| 2026-04-20 00:45 | 33.77140 | -86.99339 | 5005 ft | 256 kts | 284° |
| 2026-04-20 00:46 | 33.77514 | -87.01471 | 4969 ft | 259 kts | 284° |
| 2026-04-20 00:46 | 33.77893 | -87.03634 | 4838 ft | 258 kts | 284° |
| 2026-04-20 00:46 | 33.78274 | -87.05808 | 4707 ft | 257 kts | 284° |
| 2026-04-20 00:46 | 33.78646 | -87.07935 | 4581 ft | 257 kts | 284° |
| 2026-04-20 00:47 | 33.79024 | -87.10094 | 4451 ft | 257 kts | 284° |
| 2026-04-20 00:47 | 33.79400 | -87.12246 | 4323 ft | 257 kts | 284° |
| 2026-04-20 00:47 | 33.79770 | -87.14402 | 4194 ft | 257 kts | 281° |
| 2026-04-20 00:47 | 33.79778 | -87.16590 | 4053 ft | 260 kts | 259° |
| 2026-04-20 00:48 | 33.78899 | -87.18548 | 3919 ft | 266 kts | 225° |
| 2026-04-20 00:48 | 33.77268 | -87.19695 | 3815 ft | 270 kts | 204° |
| 2026-04-20 00:48 | 33.75455 | -87.20438 | 3697 ft | 271 kts | 198° |
| 2026-04-20 00:48 | 33.73609 | -87.21038 | 3569 ft | 270 kts | 195° |
| 2026-04-20 00:49 | 33.71743 | -87.21505 | 3441 ft | 270 kts | 191° |
| 2026-04-20 00:49 | 33.69849 | -87.21817 | 3314 ft | 270 kts | 187° |
| 2026-04-20 00:49 | 33.67947 | -87.21967 | 3183 ft | 269 kts | 182° |
| 2026-04-20 00:49 | 33.66060 | -87.21954 | 3055 ft | 268 kts | 178° |
| 2026-04-20 00:50 | 33.64202 | -87.21786 | 2988 ft | 262 kts | 174° |
| 2026-04-20 00:50 | 33.62341 | -87.21463 | 3002 ft | 268 kts | 170° |
| 2026-04-20 00:50 | 33.60477 | -87.20976 | 2993 ft | 269 kts | 166° |
| 2026-04-20 00:50 | 33.58659 | -87.20335 | 2993 ft | 269 kts | 162° |
| 2026-04-20 00:51 | 33.56889 | -87.19544 | 2993 ft | 269 kts | 158° |
| 2026-04-20 00:51 | 33.55158 | -87.18598 | 2992 ft | 269 kts | 153° |
| 2026-04-20 00:51 | 33.53469 | -87.17493 | 2991 ft | 269 kts | 149° |
| 2026-04-20 00:51 | 33.51862 | -87.16255 | 2991 ft | 269 kts | 145° |
| 2026-04-20 00:52 | 33.50338 | -87.14887 | 2991 ft | 269 kts | 141° |
| 2026-04-20 00:52 | 33.48951 | -87.13449 | 2974 ft | 252 kts | 136° |
| 2026-04-20 00:52 | 33.47693 | -87.11958 | 3003 ft | 246 kts | 133° |
| 2026-04-20 00:52 | 33.46551 | -87.10418 | 2992 ft | 249 kts | 129° |
| 2026-04-20 00:53 | 33.45430 | -87.08682 | 3002 ft | 264 kts | 125° |
| 2026-04-20 00:53 | 33.44381 | -87.06800 | 2988 ft | 267 kts | 121° |
| 2026-04-20 00:53 | 33.43450 | -87.04842 | 2988 ft | 268 kts | 116° |
| 2026-04-20 00:53 | 33.42641 | -87.02826 | 2973 ft | 251 kts | 112° |
| 2026-04-20 00:54 | 33.42119 | -87.00927 | 2970 ft | 223 kts | 90° |
| 2026-04-20 00:54 | 33.42498 | -86.99264 | 2990 ft | 196 kts | 56° |
| 2026-04-20 00:54 | 33.43287 | -86.97948 | 3007 ft | 188 kts | 49° |
| 2026-04-20 00:54 | 33.44101 | -86.96690 | 2983 ft | 183 kts | 50° |
| 2026-04-20 00:55 | 33.44866 | -86.95495 | 2694 ft | 170 kts | 50° |
| 2026-04-20 00:55 | 33.45533 | -86.94390 | 2432 ft | 155 kts | 52° |
| 2026-04-20 00:55 | 33.46146 | -86.93321 | 2356 ft | 152 kts | 53° |
| 2026-04-20 00:55 | 33.46763 | -86.92249 | 2226 ft | 152 kts | 53° |
| 2026-04-20 00:56 | 33.47361 | -86.91213 | 2187 ft | 150 kts | 52° |
| 2026-04-20 00:56 | 33.47979 | -86.90144 | 2208 ft | 152 kts | 52° |
| 2026-04-20 00:56 | 33.48580 | -86.89104 | 2156 ft | 144 kts | 52° |
| 2026-04-20 00:56 | 33.49194 | -86.88045 | 2252 ft | 154 kts | 52° |
| 2026-04-20 00:57 | 33.49814 | -86.86973 | 2285 ft | 148 kts | 53° |
| 2026-04-20 00:57 | 33.50378 | -86.85956 | 2329 ft | 144 kts | 53° |
| 2026-04-20 00:57 | 33.50917 | -86.85006 | 2317 ft | 133 kts | 52° |
| 2026-04-20 00:57 | 33.51457 | -86.84080 | 2053 ft | 138 kts | 51° |
| 2026-04-20 00:58 | 33.52019 | -86.83157 | 1857 ft | 134 kts | 51° |
| 2026-04-20 00:58 | 33.52566 | -86.82252 | 1688 ft | 131 kts | 52° |
| 2026-04-20 00:58 | 33.53089 | -86.81331 | 1459 ft | 129 kts | 53° |
| 2026-04-20 00:58 | 33.53582 | -86.80434 | 1300 ft | 127 kts | 53° |
| 2026-04-20 00:59 | 33.54091 | -86.79558 | 1137 ft | 127 kts | 52° |
| 2026-04-20 00:59 | 33.54607 | -86.78681 | 937 ft | 126 kts | 53° |
| 2026-04-20 00:59 | 33.55100 | -86.77816 | 769 ft | 126 kts | 53° |
| 2026-04-20 00:59 | 33.55600 | -86.76939 | 629 ft | 120 kts | 53° |
| 2026-04-20 01:00 | 33.55989 | -86.76264 | 623 ft | 65 kts | 54° |
| 2026-04-20 01:00 | 33.56156 | -86.75977 | 622 ft | 33 kts | 54° |
| 2026-04-20 01:00 | 33.56248 | -86.75819 | 622 ft | 22 kts | 55° |
| 2026-04-20 01:00 | 33.56328 | -86.75710 | 621 ft | 18 kts | 13° |
| 2026-04-20 01:01 | 33.56385 | -86.75732 | 625 ft | 6 kts | 331° |
| 2026-04-20 01:01 | 33.56422 | -86.75772 | 629 ft | 12 kts | 310° |
| 2026-04-20 01:01 | 33.56463 | -86.75784 | 632 ft | 7 kts | 52° |
| 2026-04-20 01:01 | 33.56508 | -86.75714 | 632 ft | 11 kts | 53° |
| 2026-04-20 01:02 | 33.56565 | -86.75642 | 632 ft | 12 kts | 18° |
| 2026-04-20 01:02 | 33.56638 | -86.75662 | 637 ft | 10 kts | 337° |
| 2026-04-20 01:02 | 33.56724 | -86.75618 | 639 ft | 15 kts | 55° |
| 2026-04-20 01:02 | 33.56715 | -86.75564 | 637 ft | 0 kts | 156° |